Time;durP1;ratioP1;P1;durP2;ratioP2;P2;SDS_P1;SDS_P2;PMS_P1;PMS_P2;Temp;Humidity;BMP_temperature;BMP_pressure;BME280_temperature;BME280_humidity;BME280_pressure;Samples;Min_cycle;Max_cycle;Signal;HPM_P1;HPM_P2
2023/10/07 00:00:47;;;;;;;8.43;6.20;;;14.60;49.90;;;;;;20582;6862;118224;-75
2023/10/07 00:03:14;;;;;;;7.82;7.03;;;14.40;49.90;;;;;;20337;6862;308535;-75
2023/10/07 00:05:40;;;;;;;8.02;7.32;;;14.40;49.80;;;;;;20370;6862;310374;-75
2023/10/07 00:08:04;;;;;;;7.57;6.85;;;14.50;49.30;;;;;;20367;6862;308236;-75
2023/10/07 00:10:30;;;;;;;8.40;5.90;;;14.60;49.40;;;;;;20572;6862;117242;-75
2023/10/07 00:13:00;;;;;;;7.20;6.50;;;14.00;50.00;;;;;;20565;6862;117804;-75
2023/10/07 00:15:28;;;;;;;7.07;5.70;;;14.00;50.00;;;;;;20569;6862;117875;-75
2023/10/07 00:17:50;;;;;;;7.22;6.40;;;13.70;50.40;;;;;;20365;6863;279996;-75
2023/10/07 00:20:20;;;;;;;7.75;6.72;;;13.80;50.50;;;;;;20365;6863;338667;-75
2023/10/07 00:22:47;;;;;;;6.50;5.90;;;14.10;50.10;;;;;;20569;6863;118118;-75
2023/10/07 00:25:07;;;;;;;7.40;6.70;;;14.00;50.10;;;;;;20320;6863;309063;-75
2023/10/07 00:27:38;;;;;;;7.10;6.47;;;14.10;49.90;;;;;;20568;6863;118007;-75
2023/10/07 00:30:00;;;;;;;6.60;5.40;;;13.90;49.70;;;;;;20568;6863;121507;-75
2023/10/07 00:32:32;;;;;;;7.53;5.83;;;13.60;50.00;;;;;;20567;6863;117303;-75
2023/10/07 00:34:59;;;;;;;7.77;6.37;;;13.40;50.50;;;;;;20339;6863;279591;-75
2023/10/07 00:37:24;;;;;;;6.22;5.62;;;13.50;50.90;;;;;;20567;6863;117660;-75
2023/10/07 00:39:48;;;;;;;9.13;6.90;;;13.50;50.80;;;;;;20362;6863;285358;-75
2023/10/07 00:42:14;;;;;;;7.07;6.47;;;13.60;50.30;;;;;;20371;6863;304724;-75
2023/10/07 00:44:39;;;;;;;6.17;5.67;;;13.90;49.90;;;;;;20591;6863;117830;-75
2023/10/07 00:49:39;;;;;;;5.95;5.35;;;13.90;49.80;;;;;;20591;6863;117504;-75
2023/10/07 00:51:57;;;;;;;6.05;5.50;;;13.80;49.80;;;;;;20574;6863;118873;-75
2023/10/07 00:57:03;;;;;;;6.20;5.60;;;13.30;50.50;;;;;;20559;6863;117186;-75
2023/10/07 00:59:16;;;;;;;8.10;5.80;;;13.10;50.70;;;;;;20524;6863;118827;-75
2023/10/07 01:01:46;;;;;;;5.83;5.33;;;12.90;50.80;;;;;;20557;6863;126462;-75
2023/10/07 01:04:07;;;;;;;7.47;6.78;;;12.90;51.00;;;;;;20336;6863;346649;-75
2023/10/07 01:06:38;;;;;;;6.27;5.67;;;13.10;50.90;;;;;;20585;6863;117621;-75
2023/10/07 01:09:07;;;;;;;7.30;6.60;;;13.10;50.70;;;;;;20344;6861;339016;-75
2023/10/07 01:11:29;;;;;;;7.62;6.85;;;13.20;50.70;;;;;;20310;6862;313401;-75
2023/10/07 01:13:56;;;;;;;6.20;5.63;;;13.60;50.30;;;;;;20566;6862;121076;-75
2023/10/07 01:16:25;;;;;;;7.18;6.45;;;13.50;50.10;;;;;;20332;6862;308378;-75
2023/10/07 01:18:41;;;;;;;6.87;6.27;;;13.50;49.70;;;;;;20540;6862;118000;-75
2023/10/07 01:21:10;;;;;;;7.30;6.60;;;13.50;49.90;;;;;;20339;6862;337997;-75
2023/10/07 01:23:34;;;;;;;7.40;6.70;;;13.50;50.00;;;;;;20337;6862;281223;-75
2023/10/07 01:26:01;;;;;;;6.97;6.27;;;13.70;48.90;;;;;;20377;6862;278629;-75
2023/10/07 01:28:26;;;;;;;7.87;6.37;;;14.00;48.40;;;;;;20366;6863;279590;-75
2023/10/07 01:31:12;;;;;;;7.43;5.80;;;14.00;48.40;;;;;;20571;6863;120474;-75
2023/10/07 01:33:45;;;;;;;8.70;6.73;;;13.80;48.70;;;;;;20364;6863;293673;-75
2023/10/07 01:36:19;;;;;;;8.50;5.97;;;13.80;48.60;;;;;;20576;6863;117372;-75
2023/10/07 01:38:48;;;;;;;9.97;5.70;;;13.60;48.80;;;;;;20581;6863;117762;-75
2023/10/07 01:41:18;;;;;;;7.32;6.62;;;13.20;49.50;;;;;;20345;6863;433393;-75
2023/10/07 01:43:48;;;;;;;6.30;5.70;;;13.20;49.50;;;;;;20574;6863;117636;-75
2023/10/07 01:46:10;;;;;;;7.67;6.23;;;13.10;49.60;;;;;;20572;6863;121727;-74
2023/10/07 01:48:35;;;;;;;7.57;6.87;;;12.80;50.00;;;;;;20369;6863;279497;-74
2023/10/07 01:51:05;;;;;;;6.53;5.80;;;12.90;50.00;;;;;;20560;6863;118075;-74
2023/10/07 01:53:28;;;;;;;7.57;6.72;;;12.90;49.90;;;;;;20371;6863;338243;-74
2023/10/07 01:55:54;;;;;;;8.07;6.87;;;12.90;49.90;;;;;;20372;6863;278868;-74
2023/10/07 01:58:19;;;;;;;7.00;6.40;;;13.20;49.50;;;;;;20371;6863;309335;-74
2023/10/07 02:00:46;;;;;;;7.57;6.80;;;13.40;49.10;;;;;;20372;6863;288253;-74
2023/10/07 02:03:13;;;;;;;7.33;5.77;;;13.50;48.70;;;;;;20545;6863;117333;-74
2023/10/07 02:05:46;;;;;;;7.00;6.40;;;13.30;48.90;;;;;;20363;6863;279171;-74
2023/10/07 02:08:12;;;;;;;5.90;5.10;;;13.30;48.90;;;;;;20538;6863;117281;-75
2023/10/07 02:10:35;;;;;;;6.03;5.53;;;13.10;49.00;;;;;;20576;6863;124062;-74
2023/10/07 02:13:00;;;;;;;5.57;5.05;;;12.80;49.40;;;;;;20569;6863;118186;-74
2023/10/07 02:15:25;;;;;;;6.70;6.10;;;12.60;49.90;;;;;;20347;6863;317998;-74
2023/10/07 02:17:56;;;;;;;7.33;5.53;;;12.70;50.00;;;;;;20573;6863;117757;-74
2023/10/07 02:20:38;;;;;;;6.33;5.10;;;12.50;50.10;;;;;;20577;6861;117334;-72
2023/10/07 02:22:44;;;;;;;6.20;5.67;;;12.50;50.80;;;;;;20515;6862;117156;-74
2023/10/07 02:25:08;;;;;;;6.50;5.68;;;12.40;50.50;;;;;;20560;6862;140752;-74
2023/10/07 02:27:41;;;;;;;8.80;6.62;;;12.20;50.60;;;;;;20375;6862;281705;-74
2023/10/07 02:30:00;;;;;;;6.97;6.37;;;12.40;50.00;;;;;;20350;6862;293654;-77
2023/10/07 02:32:25;;;;;;;6.95;6.35;;;12.80;49.60;;;;;;20364;6862;308676;-74
2023/10/07 02:34:51;;;;;;;6.93;6.17;;;13.10;48.60;;;;;;20573;6862;121005;-74
2023/10/07 02:37:25;;;;;;;6.72;5.97;;;13.00;49.20;;;;;;20353;6862;338223;-74
2023/10/07 02:39:50;;;;;;;6.03;5.17;;;13.00;48.50;;;;;;20569;6863;117704;-75
2023/10/07 02:42:21;;;;;;;5.63;5.13;;;12.90;48.70;;;;;;20569;6863;121768;-76
2023/10/07 02:44:41;;;;;;;6.80;6.10;;;12.60;49.10;;;;;;20335;6863;345077;-75
2023/10/07 02:47:11;;;;;;;5.90;5.40;;;12.70;48.90;;;;;;20551;6863;143998;-75
2023/10/07 02:49:31;;;;;;;6.23;5.07;;;12.60;49.10;;;;;;20562;6863;117490;-75
2023/10/07 02:51:57;;;;;;;7.70;4.90;;;12.40;49.50;;;;;;20562;6863;117344;-75
2023/10/07 02:54:32;;;;;;;5.97;4.93;;;12.20;49.80;;;;;;20572;6863;117296;-75
2023/10/07 02:57:04;;;;;;;6.68;6.10;;;12.00;50.00;;;;;;20330;6863;332458;-75
2023/10/07 02:59:29;;;;;;;5.60;5.10;;;12.20;49.70;;;;;;20554;6863;121411;-75
2023/10/07 03:02:20;;;;;;;6.03;5.13;;;12.30;49.90;;;;;;20580;6863;117380;-75
2023/10/07 03:04:43;;;;;;;5.47;4.97;;;12.00;51.10;;;;;;20556;6863;118823;-75
2023/10/07 03:07:13;;;;;;;6.35;5.75;;;11.90;50.20;;;;;;20318;6863;309158;-75
2023/10/07 03:09:34;;;;;;;5.43;4.70;;;12.20;49.90;;;;;;20575;6863;118756;-74
2023/10/07 03:12:02;;;;;;;5.95;4.95;;;12.30;50.00;;;;;;20589;6863;117550;-74
2023/10/07 03:14:27;;;;;;;5.30;4.90;;;12.10;50.50;;;;;;20581;6863;117278;-74
2023/10/07 03:16:59;;;;;;;6.78;5.75;;;12.00;50.40;;;;;;20359;6863;309005;-78
2023/10/07 03:19:20;;;;;;;5.90;5.50;;;12.30;49.80;;;;;;20393;6863;117375;-74
2023/10/07 03:24:28;;;;;;;6.25;5.65;;;12.10;49.70;;;;;;20375;6863;302321;-74
2023/10/07 03:26:45;;;;;;;6.40;5.90;;;12.30;49.50;;;;;;20350;6863;331992;-74
2023/10/07 03:29:16;;;;;;;6.43;5.93;;;12.60;48.50;;;;;;20346;6863;321873;-74
2023/10/07 03:31:35;;;;;;;6.73;6.13;;;12.80;47.70;;;;;;20354;6861;287230;-74
2023/10/07 03:34:02;;;;;;;5.67;5.03;;;12.70;47.90;;;;;;20585;6862;121526;-74
2023/10/07 03:36:31;;;;;;;5.40;4.90;;;12.70;47.90;;;;;;20573;6862;117458;-74
2023/10/07 03:39:09;;;;;;;5.90;5.40;;;12.30;48.50;;;;;;20342;6862;341003;-75
2023/10/07 03:41:21;;;;;;;6.70;5.47;;;12.30;48.50;;;;;;20519;6862;117891;-74
2023/10/07 03:43:48;;;;;;;5.53;5.03;;;12.20;48.60;;;;;;20569;6862;117904;-74
2023/10/07 03:46:16;;;;;;;6.33;5.83;;;11.90;49.10;;;;;;20366;6862;284647;-74
2023/10/07 03:48:40;;;;;;;6.45;5.85;;;12.00;49.20;;;;;;20354;6862;308226;-74
2023/10/07 03:51:05;;;;;;;6.60;6.10;;;12.30;48.80;;;;;;20344;6862;311654;-74
2023/10/07 03:53:32;;;;;;;6.80;5.93;;;12.50;48.10;;;;;;20359;6863;309398;-75
2023/10/07 03:55:56;;;;;;;7.03;5.27;;;12.70;47.90;;;;;;20581;6863;117559;-74
2023/10/07 03:58:23;;;;;;;7.78;6.18;;;12.50;48.00;;;;;;20375;6863;346190;-74
2023/10/07 04:00:48;;;;;;;6.97;6.37;;;12.50;48.10;;;;;;20371;6863;316511;-74
2023/10/07 04:03:15;;;;;;;6.67;6.10;;;12.70;47.70;;;;;;20354;6863;312781;-74
2023/10/07 04:05:45;;;;;;;6.37;5.73;;;12.80;47.20;;;;;;20581;6863;118595;-74
2023/10/07 04:08:06;;;;;;;7.12;6.50;;;12.60;47.60;;;;;;20355;6863;279908;-74
2023/10/07 04:10:36;;;;;;;6.70;6.10;;;12.50;47.90;;;;;;20361;6863;336310;-75
2023/10/07 04:12:57;;;;;;;6.18;5.15;;;12.60;47.60;;;;;;20564;6863;120401;-75
2023/10/07 04:15:28;;;;;;;6.47;5.87;;;12.40;47.70;;;;;;20349;6863;334130;-75
2023/10/07 04:17:52;;;;;;;6.57;5.97;;;12.40;47.70;;;;;;20356;6863;309070;-74
2023/10/07 04:20:28;;;;;;;6.53;6.03;;;12.50;47.50;;;;;;20366;6863;279969;-74
2023/10/07 04:22:40;;;;;;;5.97;5.47;;;12.70;47.20;;;;;;20501;6863;117221;-75
2023/10/07 04:25:17;;;;;;;6.50;5.90;;;12.40;47.40;;;;;;20347;6863;308938;-74
2023/10/07 04:27:32;;;;;;;6.37;5.83;;;12.40;47.50;;;;;;20343;6863;311299;-74
2023/10/07 04:30:00;;;;;;;6.50;5.93;;;12.60;47.60;;;;;;20331;6863;308674;-74
2023/10/07 04:32:22;;;;;;;5.43;4.90;;;12.70;47.10;;;;;;20567;6863;117635;-74
2023/10/07 04:37:47;;;;;;;6.60;6.00;;;12.60;48.10;;;;;;20360;6863;306302;-73
2023/10/07 04:46:21;;;;;;;5.90;5.37;;;12.30;47.70;;;;;;20568;6862;117346;-74
2023/10/07 04:48:54;;;;;;;6.55;6.05;;;12.00;48.10;;;;;;20260;6862;327889;-74
2023/10/07 04:51:12;;;;;;;5.50;5.10;;;12.10;48.30;;;;;;20532;6862;117834;-74
2023/10/07 04:53:39;;;;;;;5.47;5.03;;;11.90;48.50;;;;;;20572;6862;117558;-74
2023/10/07 04:56:08;;;;;;;4.87;4.57;;;11.60;48.80;;;;;;20573;6862;117742;-75
2023/10/07 04:58:39;;;;;;;4.77;4.27;;;11.40;49.30;;;;;;20563;6862;117707;-74
2023/10/07 05:01:04;;;;;;;5.53;5.10;;;11.00;50.10;;;;;;20528;6862;121874;-74
2023/10/07 05:03:31;;;;;;;6.17;4.87;;;11.00;50.10;;;;;;20571;6863;117866;-74
2023/10/07 05:05:58;;;;;;;6.25;5.75;;;11.20;50.20;;;;;;20340;6863;338221;-75
2023/10/07 05:08:23;;;;;;;6.77;6.17;;;11.20;50.20;;;;;;20353;6863;309583;-76
2023/10/07 05:11:04;;;;;;;6.47;5.93;;;11.60;50.00;;;;;;20346;6863;308732;-75
2023/10/07 05:13:20;;;;;;;6.33;5.73;;;11.90;49.00;;;;;;20560;6863;120225;-75
2023/10/07 05:15:46;;;;;;;5.60;5.07;;;11.80;49.00;;;;;;20573;6863;117593;-75
2023/10/07 05:18:12;;;;;;;5.63;5.03;;;11.50;49.40;;;;;;20574;6863;118815;-75
2023/10/07 05:20:37;;;;;;;5.40;4.80;;;11.30;49.90;;;;;;20578;6863;118150;-75
2023/10/07 05:23:04;;;;;;;6.30;5.80;;;11.20;50.20;;;;;;20351;6863;338206;-75
2023/10/07 05:25:28;;;;;;;6.80;6.20;;;11.40;49.70;;;;;;20372;6863;279377;-75
2023/10/07 05:27:55;;;;;;;5.70;5.20;;;11.70;49.10;;;;;;20576;6863;117599;-75
2023/10/07 05:30:21;;;;;;;6.10;5.30;;;11.70;49.10;;;;;;20583;6863;122096;-75
2023/10/07 05:32:48;;;;;;;6.43;5.30;;;11.50;49.60;;;;;;20573;6863;117523;-75
2023/10/07 05:35:19;;;;;;;6.40;5.80;;;11.20;49.90;;;;;;20552;6863;117763;-75
2023/10/07 05:37:44;;;;;;;6.93;6.43;;;11.10;50.30;;;;;;20364;6863;279119;-75
2023/10/07 05:40:13;;;;;;;6.53;5.93;;;11.30;49.80;;;;;;20573;6863;117382;-74
2023/10/07 05:42:35;;;;;;;6.00;5.43;;;11.30;49.60;;;;;;20563;6863;117390;-75
2023/10/07 05:45:03;;;;;;;6.17;5.60;;;11.10;49.80;;;;;;20554;6863;121659;-75
2023/10/07 05:47:26;;;;;;;6.90;6.27;;;11.00;50.20;;;;;;20358;6863;302864;-75
2023/10/07 05:49:55;;;;;;;7.32;6.72;;;11.20;50.10;;;;;;20373;6863;310765;-75
2023/10/07 05:52:18;;;;;;;5.80;5.30;;;11.60;49.40;;;;;;20567;6863;117198;-75
2023/10/07 05:54:43;;;;;;;5.63;5.13;;;11.60;49.20;;;;;;20589;6861;118509;-75
2023/10/07 05:57:09;;;;;;;15.17;14.07;;;11.40;49.70;;;;;;20378;6862;286619;-75
2023/10/07 05:59:34;;;;;;;7.83;7.23;;;11.60;49.50;;;;;;20402;6862;309267;-75
2023/10/07 06:02:02;;;;;;;5.90;5.30;;;12.00;48.90;;;;;;20589;6862;117571;-76
2023/10/07 06:04:28;;;;;;;4.67;4.27;;;12.00;48.90;;;;;;20584;6862;117800;-78
2023/10/07 06:06:53;;;;;;;7.67;5.00;;;11.80;49.70;;;;;;20573;6862;117293;-79
2023/10/07 06:09:18;;;;;;;5.00;4.60;;;11.70;49.60;;;;;;20409;6862;117237;-75
2023/10/07 06:11:44;;;;;;;6.47;5.87;;;11.70;49.90;;;;;;20376;6862;309084;-75
2023/10/07 06:14:11;;;;;;;6.60;6.10;;;12.00;48.90;;;;;;20375;6862;309177;-75
2023/10/07 06:16:36;;;;;;;6.95;6.30;;;12.90;47.90;;;;;;20374;6863;308184;-75
2023/10/07 06:19:02;;;;;;;5.47;4.80;;;12.80;47.80;;;;;;20563;6863;122120;-75
2023/10/07 06:21:29;;;;;;;5.80;5.30;;;12.90;48.00;;;;;;20580;6863;118350;-75
2023/10/07 06:24:07;;;;;;;7.17;6.47;;;12.80;48.30;;;;;;20357;6863;311806;-78
2023/10/07 06:26:21;;;;;;;6.67;5.60;;;12.80;47.50;;;;;;20509;6863;117203;-77
2023/10/07 06:28:48;;;;;;;6.10;5.60;;;12.80;47.00;;;;;;20584;6863;121485;-77
2023/10/07 06:31:31;;;;;;;6.82;6.12;;;12.60;47.50;;;;;;20365;6863;279513;-78
2023/10/07 06:34:00;;;;;;;5.73;5.13;;;12.70;47.20;;;;;;20595;6863;122970;-78
2023/10/07 06:36:25;;;;;;;6.78;6.18;;;12.70;47.40;;;;;;20358;6863;348385;-79
2023/10/07 06:38:52;;;;;;;7.17;6.47;;;12.90;46.80;;;;;;20359;6863;315505;-77
2023/10/07 06:41:18;;;;;;;6.30;5.80;;;13.40;46.00;;;;;;20348;6863;316399;-75
2023/10/07 06:43:43;;;;;;;6.53;5.95;;;13.40;46.00;;;;;;20346;6863;279095;-76
2023/10/07 06:46:11;;;;;;;5.20;4.73;;;13.60;45.90;;;;;;20573;6863;117310;-76
2023/10/07 06:48:34;;;;;;;6.07;5.62;;;13.60;46.40;;;;;;20361;6863;337747;-75
2023/10/07 06:51:01;;;;;;;5.95;5.45;;;14.00;45.80;;;;;;20344;6863;281764;-76
2023/10/07 06:53:26;;;;;;;6.77;5.73;;;14.00;45.80;;;;;;20367;6863;296483;-77
2023/10/07 06:55:52;;;;;;;6.50;5.87;;;14.30;45.20;;;;;;20380;6863;307138;-79
2023/10/07 06:58:22;;;;;;;6.47;4.93;;;14.50;45.00;;;;;;20607;6863;67484;-79
2023/10/07 07:00:49;;;;;;;6.70;5.77;;;14.50;45.50;;;;;;20380;6863;279361;-79
2023/10/07 07:03:17;;;;;;;6.62;5.55;;;14.60;45.50;;;;;;20353;6863;339178;-79
2023/10/07 07:05:50;;;;;;;5.50;5.00;;;14.80;45.40;;;;;;20595;6863;121524;-79
2023/10/07 07:08:13;;;;;;;5.67;5.13;;;14.80;45.40;;;;;;20577;6862;116674;-79
2023/10/07 07:10:40;;;;;;;5.03;4.62;;;14.70;45.90;;;;;;20602;6862;117214;-80
2023/10/07 07:13:22;;;;;;;5.20;4.80;;;14.60;46.30;;;;;;20564;6862;117811;-77
2023/10/07 07:15:43;;;;;;;4.97;4.53;;;14.50;46.50;;;;;;20572;6862;117303;-78
2023/10/07 07:21:37;;;;;;;6.23;4.80;;;14.60;47.00;;;;;;20562;6862;117307;-79
2023/10/07 07:24:03;;;;;;;6.37;5.87;;;14.80;47.20;;;;;;20343;6862;278986;-77
2023/10/07 07:26:30;;;;;;;6.70;5.13;;;15.20;46.50;;;;;;20364;6863;308683;-79
2023/10/07 07:28:59;;;;;;;5.67;4.30;;;15.80;45.40;;;;;;20580;6863;149533;-80
2023/10/07 07:31:33;;;;;;;5.50;5.00;;;16.20;45.60;;;;;;20392;6863;336566;-81
2023/10/07 07:34:06;;;;;;;7.57;5.80;;;16.60;44.40;;;;;;20365;6863;315974;-79
2023/10/07 07:36:38;;;;;;;5.10;4.70;;;17.20;44.10;;;;;;20563;6863;117774;-80
2023/10/07 07:39:06;;;;;;;7.60;5.60;;;17.40;43.90;;;;;;20539;6863;117932;-80
2023/10/07 07:41:37;;;;;;;9.48;5.93;;;17.50;44.10;;;;;;20371;6863;337386;-80
2023/10/07 07:44:02;;;;;;;5.47;4.77;;;17.80;42.90;;;;;;20596;6863;118911;-80
2023/10/07 07:46:26;;;;;;;9.50;5.20;;;17.80;42.90;;;;;;20604;6863;117290;-80
2023/10/07 07:48:53;;;;;;;5.85;5.35;;;17.80;43.90;;;;;;20374;6863;309095;-81
2023/10/07 07:51:18;;;;;;;5.60;4.93;;;18.00;42.80;;;;;;20594;6863;122652;-80
2023/10/07 07:53:43;;;;;;;7.05;5.25;;;18.10;43.00;;;;;;20598;6863;117213;-80
2023/10/07 07:56:12;;;;;;;11.90;5.10;;;18.00;43.10;;;;;;20592;6863;117604;-80
2023/10/07 07:58:37;;;;;;;6.15;5.55;;;18.00;43.30;;;;;;20370;6863;309553;-80
2023/10/07 08:01:04;;;;;;;6.53;5.67;;;18.30;41.60;;;;;;20576;6863;155162;-80
2023/10/07 08:03:27;;;;;;;8.52;6.05;;;18.40;39.90;;;;;;20369;6863;338728;-80
2023/10/07 08:05:54;;;;;;;12.43;5.00;;;18.40;39.90;;;;;;20589;6863;117654;-79
2023/10/07 08:08:24;;;;;;;5.23;4.40;;;18.50;40.50;;;;;;20531;6863;118291;-80
2023/10/07 08:10:48;;;;;;;5.80;5.20;;;18.50;40.40;;;;;;20377;6863;308690;-80
2023/10/07 08:13:10;;;;;;;6.37;5.17;;;18.50;40.40;;;;;;20367;6863;307002;-78
2023/10/07 08:15:41;;;;;;;11.53;5.67;;;18.90;40.00;;;;;;20612;6863;118183;-79
2023/10/07 08:18:06;;;;;;;6.33;4.87;;;19.10;40.20;;;;;;20611;6861;117250;-78
2023/10/07 08:20:37;;;;;;;5.05;4.60;;;19.10;40.70;;;;;;20604;6862;119111;-78
2023/10/07 08:23:06;;;;;;;5.40;5.00;;;19.20;41.00;;;;;;20560;6862;117725;-78
2023/10/07 08:25:45;;;;;;;5.62;5.03;;;19.10;40.80;;;;;;20360;6862;307116;-77
2023/10/07 08:28:18;;;;;;;5.50;5.00;;;19.40;40.00;;;;;;20593;6862;117546;-79
2023/10/07 08:30:37;;;;;;;5.55;5.15;;;19.60;40.30;;;;;;20359;6862;337277;-78
2023/10/07 08:32:55;;;;;;;5.10;4.60;;;20.10;39.70;;;;;;20559;6862;117455;-78
2023/10/07 08:35:25;;;;;;;7.80;5.32;;;20.10;39.70;;;;;;20389;6862;307747;-78
2023/10/07 08:37:46;;;;;;;5.37;4.50;;;20.50;38.80;;;;;;20560;6863;117726;-76
2023/10/07 08:40:25;;;;;;;5.00;4.60;;;20.60;38.80;;;;;;20572;6863;117952;-76
2023/10/07 08:42:49;;;;;;;6.07;4.60;;;20.60;39.00;;;;;;20337;6863;309165;-76
2023/10/07 08:45:16;;;;;;;7.03;4.70;;;20.80;38.00;;;;;;20338;6863;279004;-76
2023/10/07 08:47:49;;;;;;;5.25;4.75;;;21.50;37.10;;;;;;20377;6863;346502;-76
2023/10/07 08:50:08;;;;;;;5.83;4.17;;;21.50;36.50;;;;;;20563;6863;117315;-76
2023/10/07 08:52:33;;;;;;;5.40;4.90;;;21.60;37.20;;;;;;20394;6863;310333;-76
2023/10/07 08:54:59;;;;;;;5.97;5.10;;;21.60;37.00;;;;;;20365;6863;309121;-76
2023/10/07 08:57:25;;;;;;;7.27;4.57;;;21.80;36.90;;;;;;20576;6863;117474;-76
2023/10/07 08:59:52;;;;;;;5.15;4.65;;;21.80;37.50;;;;;;20376;6863;309147;-76
2023/10/07 09:02:26;;;;;;;10.70;4.20;;;21.80;37.10;;;;;;20576;6863;117628;-76
2023/10/07 09:04:42;;;;;;;5.70;4.43;;;21.80;37.10;;;;;;20557;6863;117487;-76
2023/10/07 09:07:11;;;;;;;5.75;4.68;;;21.70;37.60;;;;;;20346;6863;308721;-76
2023/10/07 09:09:43;;;;;;;4.40;4.00;;;21.90;37.50;;;;;;20576;6863;117341;-76
2023/10/07 09:12:15;;;;;;;4.83;4.43;;;21.90;37.50;;;;;;20573;6863;118452;-76
2023/10/07 09:14:51;;;;;;;5.63;4.40;;;21.90;37.70;;;;;;20369;6863;309901;-76
2023/10/07 09:17:13;;;;;;;4.97;4.57;;;22.10;36.70;;;;;;20334;6863;343912;-76
2023/10/07 09:19:43;;;;;;;5.40;3.90;;;22.60;36.30;;;;;;20588;6863;117753;-76
2023/10/07 09:22:10;;;;;;;5.00;4.43;;;22.90;36.50;;;;;;20579;6863;118438;-76
2023/10/07 09:24:30;;;;;;;4.87;4.20;;;22.80;36.40;;;;;;20579;6863;119948;-76
2023/10/07 09:26:59;;;;;;;4.63;4.23;;;22.90;36.70;;;;;;20364;6863;284417;-77
2023/10/07 09:29:32;;;;;;;4.03;3.73;;;23.20;35.30;;;;;;20595;6861;121503;-78
2023/10/07 09:32:07;;;;;;;4.13;3.83;;;23.50;35.30;;;;;;20577;6862;121844;-76
2023/10/07 09:34:47;;;;;;;4.87;4.47;;;23.50;34.80;;;;;;20371;6862;332815;-76
2023/10/07 09:37:17;;;;;;;5.35;4.32;;;23.70;32.80;;;;;;20342;6862;468447;-78
2023/10/07 09:39:53;;;;;;;3.97;3.67;;;24.00;33.10;;;;;;20567;6862;117300;-75
2023/10/07 09:42:36;;;;;;;3.90;3.50;;;24.00;33.60;;;;;;20546;6862;117830;-75
2023/10/07 09:44:53;;;;;;;4.60;4.20;;;23.70;33.30;;;;;;20319;6862;287692;-75
2023/10/07 09:47:21;;;;;;;4.25;3.95;;;23.90;33.10;;;;;;20356;6862;301963;-75
2023/10/07 09:49:44;;;;;;;7.13;3.70;;;24.20;33.00;;;;;;20570;6863;117630;-75
2023/10/07 09:52:17;;;;;;;4.78;4.43;;;24.30;33.00;;;;;;20357;6863;287782;-75
2023/10/07 09:54:47;;;;;;;4.57;4.17;;;24.30;31.60;;;;;;20364;6863;316399;-76
2023/10/07 09:57:14;;;;;;;5.03;4.57;;;24.60;31.60;;;;;;20347;6863;278194;-76
2023/10/07 10:00:37;;;;;;;6.40;4.40;;;24.70;30.90;;;;;;20356;6863;309428;-77
2023/10/07 10:02:43;;;;;;;4.73;4.33;;;25.00;30.30;;;;;;20315;6863;308705;-76
2023/10/07 10:05:22;;;;;;;4.57;4.20;;;25.00;30.30;;;;;;20356;6863;307651;-80
2023/10/07 10:07:47;;;;;;;4.10;3.80;;;24.80;31.20;;;;;;20579;6863;119700;-86
2023/10/07 10:10:14;;;;;;;4.60;4.20;;;24.80;31.10;;;;;;20412;6863;284917;-77
2023/10/07 10:12:48;;;;;;;4.77;4.20;;;24.80;30.70;;;;;;20385;6863;336235;-78
2023/10/07 10:17:53;;;;;;;3.80;3.50;;;24.90;30.60;;;;;;20603;6863;117875;-79
2023/10/07 10:20:18;;;;;;;4.40;4.00;;;24.70;31.10;;;;;;20384;6863;279067;-78
2023/10/07 10:22:49;;;;;;;4.60;4.00;;;24.70;31.00;;;;;;20373;6863;308636;-82
2023/10/07 10:25:16;;;;;;;4.60;4.20;;;24.80;30.90;;;;;;20362;6863;309054;-81
2023/10/07 10:27:41;;;;;;;5.50;4.50;;;25.00;30.70;;;;;;20377;6863;286986;-80
2023/10/07 10:30:26;;;;;;;4.93;3.95;;;25.10;30.60;;;;;;20278;6863;280270;-83
2023/10/07 10:32:58;;;;;;;4.70;3.40;;;25.20;30.40;;;;;;20563;6863;118455;-78
2023/10/07 10:35:37;;;;;;;4.63;4.23;;;25.00;30.80;;;;;;20330;6863;296599;-73
2023/10/07 10:38:10;;;;;;;3.40;3.20;;;24.90;30.70;;;;;;20470;6863;121186;-74
2023/10/07 10:40:41;;;;;;;4.60;3.70;;;24.80;31.20;;;;;;20486;6861;121683;-75
2023/10/07 10:43:10;;;;;;;5.27;4.20;;;24.60;31.50;;;;;;20357;6862;315290;-76
2023/10/07 10:45:41;;;;;;;3.10;2.90;;;24.60;30.80;;;;;;20594;6862;117675;-74
2023/10/07 10:48:03;;;;;;;4.57;4.03;;;24.80;30.90;;;;;;20353;6862;312134;-74
2023/10/07 10:50:29;;;;;;;4.37;4.00;;;24.70;30.80;;;;;;20368;6862;339313;-74
2023/10/07 10:52:55;;;;;;;5.22;4.28;;;25.00;30.40;;;;;;20353;6862;279917;-75
2023/10/07 10:55:24;;;;;;;3.80;3.50;;;25.30;30.00;;;;;;20555;6862;117668;-75
2023/10/07 10:57:46;;;;;;;5.37;4.03;;;25.30;30.40;;;;;;20373;6862;278593;-75
2023/10/07 11:00:22;;;;;;;3.70;3.20;;;25.30;30.50;;;;;;20587;6862;118686;-76
2023/10/07 11:02:47;;;;;;;4.10;3.80;;;25.30;30.90;;;;;;20373;6863;305393;-75
2023/10/07 11:05:15;;;;;;;3.40;3.10;;;25.30;29.60;;;;;;20552;6863;117634;-75
2023/10/07 11:07:40;;;;;;;3.92;3.60;;;25.30;29.80;;;;;;20381;6863;320700;-73
2023/10/07 11:10:06;;;;;;;4.65;3.80;;;25.40;28.80;;;;;;20371;6863;309029;-76
2023/10/07 11:12:32;;;;;;;4.30;3.60;;;25.50;28.90;;;;;;20569;6862;114147;-76
2023/10/07 11:15:15;;;;;;;4.47;3.97;;;25.40;29.10;;;;;;20354;6863;303314;-75
2023/10/07 11:17:58;;;;;;;4.22;3.50;;;25.40;28.30;;;;;;20364;6863;338310;-74
2023/10/07 11:20:24;;;;;;;3.60;3.30;;;25.60;27.60;;;;;;20546;6863;117217;-73
2023/10/07 11:22:49;;;;;;;3.40;3.10;;;25.40;28.30;;;;;;20511;6863;117345;-76
2023/10/07 11:25:18;;;;;;;3.90;3.55;;;25.10;28.70;;;;;;20332;6863;287834;-75
2023/10/07 11:27:48;;;;;;;4.10;3.80;;;25.10;28.10;;;;;;20302;6863;316701;-74
2023/10/07 11:30:11;;;;;;;3.83;3.53;;;25.20;28.30;;;;;;20318;6863;314447;-80
2023/10/07 11:32:34;;;;;;;4.10;3.33;;;25.40;27.90;;;;;;20366;6863;308938;-76
2023/10/07 11:35:01;;;;;;;3.25;2.95;;;25.50;28.30;;;;;;20534;6863;117850;-79
2023/10/07 11:37:26;;;;;;;4.07;3.50;;;25.40;28.20;;;;;;20583;6863;117431;-78
2023/10/07 11:39:53;;;;;;;3.78;3.47;;;25.20;28.70;;;;;;20385;6863;313400;-85
2023/10/07 11:42:20;;;;;;;4.43;3.62;;;25.40;28.40;;;;;;20414;6863;338078;-80
2023/10/07 11:44:47;;;;;;;3.73;3.43;;;25.40;28.20;;;;;;20599;6863;121203;-80
2023/10/07 11:47:15;;;;;;;4.37;3.67;;;25.40;28.00;;;;;;20348;6863;324820;-80
2023/10/07 11:49:39;;;;;;;3.83;3.07;;;25.40;28.00;;;;;;20589;6863;117173;-82
2023/10/07 11:52:05;;;;;;;2.92;2.72;;;25.40;28.20;;;;;;20598;6863;117766;-84
2023/10/07 11:54:31;;;;;;;3.23;2.93;;;25.20;28.40;;;;;;20602;6861;116252;-82
2023/10/07 11:56:56;;;;;;;3.13;2.83;;;25.00;28.60;;;;;;20584;6862;117540;-83
2023/10/07 11:59:24;;;;;;;4.23;3.33;;;24.80;28.60;;;;;;20430;6862;308475;-84
2023/10/07 12:01:53;;;;;;;3.17;2.87;;;24.80;27.40;;;;;;20656;6862;117123;-83
2023/10/07 12:04:16;;;;;;;3.07;2.87;;;24.80;27.90;;;;;;20618;6862;116292;-82
2023/10/07 12:06:45;;;;;;;3.63;3.30;;;24.60;28.00;;;;;;20404;6862;307638;-82
2023/10/07 12:09:08;;;;;;;3.23;2.93;;;24.70;27.80;;;;;;20583;6862;120979;-83
2023/10/07 12:11:33;;;;;;;3.20;3.00;;;24.70;28.10;;;;;;20404;6862;282125;-83
2023/10/07 12:13:58;;;;;;;3.67;2.83;;;24.80;28.20;;;;;;20609;6863;118212;-83
2023/10/07 12:16:24;;;;;;;3.03;2.80;;;24.80;28.20;;;;;;20608;6863;117592;-82
2023/10/07 12:18:49;;;;;;;3.30;2.60;;;24.70;28.40;;;;;;20614;6863;118064;-82
2023/10/07 12:21:15;;;;;;;3.63;3.33;;;24.60;28.50;;;;;;20379;6863;298872;-82
2023/10/07 12:23:43;;;;;;;3.03;2.73;;;24.70;28.40;;;;;;20614;6863;118918;-83
2023/10/07 12:26:11;;;;;;;3.60;3.30;;;24.80;28.50;;;;;;20390;6863;279012;-84
2023/10/07 12:28:36;;;;;;;4.23;3.17;;;25.00;27.90;;;;;;20589;6863;121599;-84
2023/10/07 12:31:01;;;;;;;2.80;2.60;;;25.00;27.90;;;;;;20599;6863;121943;-85
2023/10/07 12:33:28;;;;;;;3.60;3.30;;;24.90;27.90;;;;;;20365;6863;307115;-84
2023/10/07 12:35:53;;;;;;;3.70;3.40;;;24.90;27.90;;;;;;20405;6863;336636;-86
2023/10/07 12:38:19;;;;;;;3.90;3.60;;;25.20;27.60;;;;;;20412;6863;308193;-84
2023/10/07 12:40:44;;;;;;;3.70;3.40;;;25.40;27.00;;;;;;20413;6863;308646;-84
2023/10/07 12:43:10;;;;;;;3.90;3.57;;;25.60;27.50;;;;;;20387;6863;308514;-84
2023/10/07 12:45:36;;;;;;;3.77;3.37;;;25.70;27.20;;;;;;20407;6863;308916;-83
2023/10/07 12:48:03;;;;;;;4.27;3.40;;;25.80;27.20;;;;;;20402;6863;344988;-84
2023/10/07 12:50:32;;;;;;;3.97;3.17;;;25.80;26.90;;;;;;20606;6863;118564;-80
2023/10/07 12:52:54;;;;;;;5.63;3.20;;;25.60;27.20;;;;;;20575;6863;118752;-85
2023/10/07 12:55:19;;;;;;;3.20;2.97;;;25.40;27.60;;;;;;20603;6863;118080;-88
2023/10/07 12:57:44;;;;;;;2.80;2.60;;;25.10;27.80;;;;;;20626;6863;121251;-85